CheckWX is a tool to help pilots better visualize weather data.  It is not intended as a substitute for an official pre-flight weather briefing.

04:02:57 UTC

KCTB TAF
Cut Bank International Airport
Cut Bank, Montana, USA
KCTB 130520Z 1306/1406 35015G22KT P6SM FEW150 FM130900 28015KT P6SM FEW040 SCT100 FM131700 27016G28KT P6SM SCT070 FM140200 29010KT P6SM BKN070

Jul-13@
06:00 UTC

Jul-13 @ 06:00 UTC

Jul-13@
09:00 UTC

Jul-13 @ 09:00 UTC

TAF KCTB 130520Z 1306/1406 35015G22KT P6SM FEW150

Expired

Wind
  • 350° at 15 KTS
  • {Gusting to 22 KTS
Cloud Levels
  • Few at 15,000' AGL

Jul-13@
09:00 UTC

Jul-13 @ 09:00 UTC

Jul-13@
17:00 UTC

Jul-13 @ 17:00 UTC

FM130900 28015KT P6SM FEW040 SCT100

Expired

Wind
  • 280° at 15 KTS
Cloud Levels
  • Few at 4,000' AGL
  • Scattered at 10,000' AGL

Jul-13@
17:00 UTC

Jul-13 @ 17:00 UTC

Jul-14@
02:00 UTC

Jul-14 @ 02:00 UTC

FM131700 27016G28KT P6SM SCT070

Expired

Wind
  • 270° at 16 KTS
  • {Gusting to 28 KTS
Cloud Levels
  • Scattered at 7,000' AGL

Jul-14@
02:00 UTC

Jul-14 @ 02:00 UTC

Jul-14@
06:00 UTC

Jul-14 @ 06:00 UTC

FM140200 29010KT P6SM BKN070

From

From Standard forecast or significant change

Wind
  • 290° at 10 KTS
Cloud Levels
  • Broken at 7,000' AGL